Time;durP1;ratioP1;P1;durP2;ratioP2;P2;SDS_P1;SDS_P2;PMS_P1;PMS_P2;Temp;Humidity;BMP_temperature;BMP_pressure;BME280_temperature;BME280_humidity;BME280_pressure;Samples;Min_cycle;Max_cycle;Signal;HPM_P1;HPM_P2
2021/05/22 00:01:07;;;;;;;5.97;2.38;;;;;;;15.73;65.90;99364.53;5052308;28;20029;-58
2021/05/22 00:03:33;;;;;;;5.50;2.40;;;;;;;15.66;66.24;99354.41;5050693;28;20029;-59
2021/05/22 00:05:59;;;;;;;4.70;2.60;;;;;;;15.49;66.69;99347.53;5052126;28;20368;-58
2021/05/22 00:08:25;;;;;;;5.95;2.30;;;;;;;15.45;68.58;99351.28;5050799;28;20068;-58
2021/05/22 00:10:50;;;;;;;4.45;2.88;;;;;;;15.26;70.16;99344.50;5052291;28;20036;-59
2021/05/22 00:13:16;;;;;;;11.13;3.15;;;;;;;15.18;69.80;99338.81;5050768;28;20396;-59
2021/05/22 00:15:43;;;;;;;4.72;2.50;;;;;;;15.12;70.64;99349.72;5051889;28;20025;-58
2021/05/22 00:18:09;;;;;;;8.35;2.53;;;;;;;15.08;72.64;99348.22;5051940;28;20021;-59
2021/05/22 00:20:35;;;;;;;5.38;3.75;;;;;;;14.95;73.92;99348.94;5052108;28;20025;-59
2021/05/22 00:23:02;;;;;;;6.97;2.63;;;;;;;14.97;72.73;99341.78;5052102;28;20017;-59
2021/05/22 00:25:27;;;;;;;4.55;3.60;;;;;;;14.89;74.80;99336.09;5064896;28;20048;-58
2021/05/22 00:27:53;;;;;;;5.68;3.20;;;;;;;14.74;75.50;99335.19;5071496;28;20021;-59
2021/05/22 00:30:19;;;;;;;7.40;2.67;;;;;;;14.73;76.12;99336.16;5062491;28;20021;-58
2021/05/22 00:32:45;;;;;;;4.68;3.45;;;;;;;14.60;77.18;99329.88;5054807;28;20021;-58
2021/05/22 00:35:11;;;;;;;5.60;2.83;;;;;;;14.55;77.46;99335.34;5072106;28;20017;-59
2021/05/22 00:37:36;;;;;;;5.75;3.33;;;;;;;14.50;77.67;99342.69;5068095;28;20480;-58
2021/05/22 00:40:03;;;;;;;6.38;2.60;;;;;;;14.48;77.94;99323.47;5051896;28;20032;-59
2021/05/22 00:42:29;;;;;;;7.03;2.70;;;;;;;14.49;76.76;99325.19;5053776;28;20056;-58
2021/05/22 00:45:10;;;;;;;3.95;2.95;;;;;;;14.46;76.94;99328.00;5069902;28;20388;-58
2021/05/22 00:47:38;;;;;;;7.35;2.92;;;;;;;14.50;75.58;99337.41;5068131;28;20021;-59
2021/05/22 00:50:07;;;;;;;6.88;3.13;;;;;;;14.47;76.36;99333.19;5051946;28;20483;-59
2021/05/22 00:52:33;;;;;;;7.18;3.20;;;;;;;14.46;76.02;99320.09;5052631;28;20561;-58
2021/05/22 00:54:58;;;;;;;9.40;3.50;;;;;;;14.46;76.13;99313.03;5064911;28;20021;-58
2021/05/22 00:57:25;;;;;;;6.00;3.10;;;;;;;14.56;75.94;99320.41;5054428;28;20170;-58
2021/05/22 00:59:51;;;;;;;7.50;3.30;;;;;;;14.47;75.57;99321.78;5074382;28;20017;-58
2021/05/22 01:02:25;;;;;;;3.50;2.78;;;;;;;14.44;75.89;99312.28;5073970;28;20364;-58
2021/05/22 01:04:52;;;;;;;5.55;3.40;;;;;;;14.44;76.02;99316.69;5035656;28;20025;-59
2021/05/22 01:07:18;;;;;;;6.20;3.50;;;;;;;14.54;75.38;99307.34;5036552;28;20065;-57
2021/05/22 01:09:48;;;;;;;5.03;3.72;;;;;;;14.53;75.58;99295.09;5074638;28;20100;-58
2021/05/22 01:12:17;;;;;;;8.38;3.83;;;;;;;14.65;75.57;99299.69;5075608;28;20035;-58
2021/05/22 01:14:54;;;;;;;7.38;4.10;;;;;;;14.59;75.62;99284.22;5055851;28;20113;-58
2021/05/22 01:17:20;;;;;;;9.65;3.83;;;;;;;14.59;75.97;99280.72;5055735;28;20025;-57
2021/05/22 01:20:01;;;;;;;4.97;3.50;;;;;;;14.60;76.18;99287.72;5073863;28;20066;-58
2021/05/22 01:22:32;;;;;;;6.35;3.53;;;;;;;14.52;76.33;99298.69;5073991;28;20028;-58
2021/05/22 01:25:17;;;;;;;6.03;3.85;;;;;;;14.50;75.71;99300.53;5075188;28;20052;-57
2021/05/22 01:27:43;;;;;;;3.72;3.20;;;;;;;14.38;76.71;99296.81;5095099;28;20024;-58
2021/05/22 01:30:09;;;;;;;8.65;3.45;;;;;;;14.34;76.29;99295.31;5095582;28;20058;-58
2021/05/22 01:32:35;;;;;;;7.32;3.70;;;;;;;14.33;75.81;99304.13;5095244;28;20387;-56
2021/05/22 01:35:01;;;;;;;8.80;3.40;;;;;;;14.30;75.83;99323.56;5076937;28;20024;-60
2021/05/22 01:37:27;;;;;;;5.45;3.42;;;;;;;14.33;75.46;99327.00;5095309;28;20028;-58
2021/05/22 01:39:52;;;;;;;5.50;3.25;;;;;;;14.34;76.22;99312.88;5109079;28;20039;-58
2021/05/22 01:42:18;;;;;;;6.60;3.63;;;;;;;14.21;76.28;99307.44;5094859;28;20031;-58
2021/05/22 01:44:48;;;;;;;6.05;3.90;;;;;;;14.39;74.93;99295.00;5076824;28;20020;-57
2021/05/22 01:47:16;;;;;;;5.57;3.97;;;;;;;14.20;75.85;99298.69;5094778;28;20120;-58
2021/05/22 01:49:41;;;;;;;4.70;3.53;;;;;;;14.30;75.91;99299.88;5100456;28;20016;-58
2021/05/22 01:52:08;;;;;;;8.65;3.45;;;;;;;14.39;75.09;99297.66;5110756;28;20053;-58
2021/05/22 01:54:35;;;;;;;7.70;3.60;;;;;;;14.30;75.48;99299.03;5084913;28;20020;-58
2021/05/22 01:57:02;;;;;;;6.47;3.47;;;;;;;14.40;75.10;99299.34;5094319;28;20581;-57
2021/05/22 01:59:28;;;;;;;6.68;4.00;;;;;;;14.40;74.90;99299.34;5094395;28;20012;-58
2021/05/22 02:01:56;;;;;;;7.07;3.60;;;;;;;14.45;75.17;99297.31;5094701;28;20054;-57
2021/05/22 02:04:24;;;;;;;6.90;3.17;;;;;;;14.34;75.00;99297.06;5094212;28;20016;-58
2021/05/22 02:06:51;;;;;;;7.60;3.05;;;;;;;14.39;74.50;99298.53;5094133;28;20032;-58
2021/05/22 02:09:19;;;;;;;4.68;2.95;;;;;;;14.33;74.92;99311.19;5093910;28;20115;-58
2021/05/22 02:11:48;;;;;;;5.28;3.42;;;;;;;14.19;75.24;99312.78;5076296;28;20035;-58
2021/05/22 02:14:21;;;;;;;5.80;3.08;;;;;;;14.21;74.62;99312.69;5094444;28;20127;-58
2021/05/22 02:16:49;;;;;;;7.03;3.30;;;;;;;14.32;75.38;99317.38;5075909;28;20028;-59
2021/05/22 02:19:17;;;;;;;4.95;3.67;;;;;;;14.35;74.87;99317.22;5094053;28;20067;-58
2021/05/22 02:21:45;;;;;;;4.28;2.90;;;;;;;14.33;74.42;99308.56;5093907;28;20020;-58
2021/05/22 02:24:13;;;;;;;6.00;3.20;;;;;;;14.41;74.26;99303.69;5075540;28;20051;-58
2021/05/22 02:26:40;;;;;;;4.55;2.95;;;;;;;14.47;73.61;99304.19;5093743;28;20020;-58
2021/05/22 02:29:09;;;;;;;8.98;3.20;;;;;;;14.48;72.88;99299.78;5094051;28;20027;-58
2021/05/22 02:31:40;;;;;;;5.65;3.05;;;;;;;14.48;73.15;99294.50;5075710;28;20035;-57
2021/05/22 02:34:07;;;;;;;3.88;2.83;;;;;;;14.48;72.43;99297.97;5094281;28;20118;-59
2021/05/22 02:36:34;;;;;;;5.60;2.60;;;;;;;14.36;73.16;99314.50;5075063;28;20513;-57
2021/05/22 02:39:01;;;;;;;5.40;2.40;;;;;;;14.29;73.92;99316.63;5058888;28;20031;-58
2021/05/22 02:41:27;;;;;;;4.07;2.83;;;;;;;14.24;73.65;99320.44;5093527;28;20052;-58
2021/05/22 02:43:57;;;;;;;8.45;3.00;;;;;;;14.18;74.31;99336.56;5093635;28;20055;-58
2021/05/22 02:46:23;;;;;;;6.30;3.00;;;;;;;14.23;73.29;99350.34;5093222;28;20170;-58
2021/05/22 02:48:51;;;;;;;4.50;2.40;;;;;;;14.26;72.93;99356.28;5073197;28;20099;-57
2021/05/22 02:51:20;;;;;;;4.57;2.42;;;;;;;14.30;72.72;99355.19;5085670;28;20020;-58
2021/05/22 02:53:45;;;;;;;4.63;2.65;;;;;;;14.39;72.38;99368.78;5093107;28;20459;-58
2021/05/22 02:56:12;;;;;;;10.27;3.28;;;;;;;14.25;72.72;99378.28;5093528;28;20035;-58
2021/05/22 02:58:42;;;;;;;5.88;2.70;;;;;;;14.45;71.67;99394.78;5075099;28;20055;-58
2021/05/22 03:01:08;;;;;;;5.35;2.67;;;;;;;14.34;72.38;99402.41;5075414;28;20051;-58
2021/05/22 03:03:36;;;;;;;6.82;2.65;;;;;;;14.34;73.16;99410.31;5075059;28;20556;-58
2021/05/22 03:06:04;;;;;;;3.90;2.55;;;;;;;14.15;74.25;99416.59;5074926;28;20061;-57
2021/05/22 03:08:40;;;;;;;6.40;2.60;;;;;;;14.02;74.35;99420.81;5075097;28;20016;-57
2021/05/22 03:11:06;;;;;;;7.30;2.80;;;;;;;13.86;74.91;99426.88;5093210;28;20103;-58
2021/05/22 03:13:31;;;;;;;8.75;2.85;;;;;;;13.87;76.59;99428.59;5093284;28;20613;-58
2021/05/22 03:15:57;;;;;;;4.72;3.00;;;;;;;13.78;76.54;99429.06;5074376;28;20028;-58
2021/05/22 03:18:22;;;;;;;5.95;3.47;;;;;;;13.65;78.18;99418.31;5093363;28;20073;-58
2021/05/22 03:20:48;;;;;;;7.47;3.20;;;;;;;13.55;78.46;99427.63;5092675;28;20047;-59
2021/05/22 03:23:14;;;;;;;6.32;3.10;;;;;;;13.63;78.74;99438.59;5093266;28;20024;-58
2021/05/22 03:25:39;;;;;;;5.72;3.33;;;;;;;13.50;78.79;99445.44;5092547;28;20101;-57
2021/05/22 03:28:05;;;;;;;4.60;2.85;;;;;;;13.59;78.65;99455.47;5093045;28;20024;-57
2021/05/22 03:30:30;;;;;;;4.93;2.78;;;;;;;13.30;79.13;99454.28;5092768;28;20489;-57
2021/05/22 03:32:56;;;;;;;3.67;2.70;;;;;;;13.24;80.33;99449.31;5092706;28;20462;-58
2021/05/22 03:35:22;;;;;;;5.88;2.58;;;;;;;13.28;80.23;99459.63;5092580;28;20035;-58
2021/05/22 03:37:47;;;;;;;5.25;2.70;;;;;;;13.15;79.63;99459.38;5093015;28;20023;-58
2021/05/22 03:40:13;;;;;;;4.85;2.67;;;;;;;13.15;79.93;99453.25;5074364;28;20027;-58
2021/05/22 03:42:39;;;;;;;5.90;2.50;;;;;;;13.10;79.88;99450.88;5092851;28;20020;-58
2021/05/22 03:45:06;;;;;;;5.85;2.67;;;;;;;13.13;80.43;99455.94;5092456;28;20056;-58
2021/05/22 03:47:31;;;;;;;3.33;2.25;;;;;;;13.23;79.92;99455.50;5074486;28;20020;-57
2021/05/22 03:49:57;;;;;;;5.07;2.17;;;;;;;13.17;80.19;99454.03;5092451;28;20020;-58
2021/05/22 03:52:23;;;;;;;6.55;3.20;;;;;;;13.10;79.54;99458.75;5092452;28;20043;-59
2021/05/22 03:54:48;;;;;;;5.75;2.30;;;;;;;13.17;80.02;99454.88;5073654;28;20035;-57
2021/05/22 03:57:14;;;;;;;4.80;2.25;;;;;;;13.18;80.30;99467.13;5074244;28;20047;-57
2021/05/22 03:59:39;;;;;;;3.92;2.03;;;;;;;13.00;79.89;99471.50;5092420;28;20085;-57
2021/05/22 04:02:05;;;;;;;6.82;1.92;;;;;;;13.06;79.94;99472.94;5092497;28;20099;-58
2021/05/22 04:04:31;;;;;;;5.32;2.50;;;;;;;13.11;79.25;99478.84;5092011;28;20185;-58
2021/05/22 04:06:56;;;;;;;4.00;2.17;;;;;;;13.07;79.75;99493.06;5091277;28;20032;-57
2021/05/22 04:09:22;;;;;;;3.45;2.00;;;;;;;13.05;79.73;99481.75;5091671;28;20077;-58
2021/05/22 04:11:48;;;;;;;3.53;1.90;;;;;;;13.05;80.30;99478.28;5092186;28;20012;-57
2021/05/22 04:14:13;;;;;;;4.78;2.08;;;;;;;13.00;80.26;99474.13;5073811;28;20387;-57
2021/05/22 04:16:39;;;;;;;3.65;2.08;;;;;;;12.96;80.40;99469.06;5092158;28;20095;-58
2021/05/22 04:19:04;;;;;;;4.22;2.22;;;;;;;12.88;80.50;99463.34;5091946;28;20024;-57
2021/05/22 04:21:30;;;;;;;3.90;1.90;;;;;;;12.79;80.98;99457.59;5092373;28;20031;-57
2021/05/22 04:23:56;;;;;;;3.00;1.85;;;;;;;12.80;80.56;99450.56;5091757;28;20378;-56
2021/05/22 04:26:22;;;;;;;4.47;2.80;;;;;;;12.77;80.71;99446.28;5092707;28;20027;-57
2021/05/22 04:28:48;;;;;;;5.78;2.60;;;;;;;12.78;81.64;99441.91;5092349;28;20016;-57
2021/05/22 04:31:13;;;;;;;5.18;2.10;;;;;;;12.81;80.61;99439.97;5094487;28;20385;-58
2021/05/22 04:33:39;;;;;;;4.28;2.40;;;;;;;12.94;80.92;99436.72;5097169;28;20047;-58
2021/05/22 04:36:06;;;;;;;5.22;2.08;;;;;;;13.11;80.33;99418.38;5096110;28;20124;-58
2021/05/22 04:38:31;;;;;;;5.50;2.80;;;;;;;13.18;80.47;99409.28;5077799;28;20062;-57
2021/05/22 04:40:57;;;;;;;8.48;4.55;;;;;;;13.01;80.97;99422.38;5077563;28;20103;-58
2021/05/22 04:43:22;;;;;;;6.47;2.90;;;;;;;13.10;81.43;99405.31;5096125;28;20024;-58
2021/05/22 04:45:48;;;;;;;4.30;2.78;;;;;;;13.16;80.69;99390.06;5096501;28;20039;-58
2021/05/22 04:48:14;;;;;;;5.03;2.38;;;;;;;13.17;79.88;99370.75;5078185;28;20487;-58
2021/05/22 04:50:39;;;;;;;3.63;2.55;;;;;;;13.09;79.76;99382.59;5095096;28;20023;-58
2021/05/22 04:53:05;;;;;;;4.03;2.03;;;;;;;13.08;80.00;99394.88;5058269;28;20048;-58
2021/05/22 04:55:31;;;;;;;4.68;2.10;;;;;;;13.20;79.42;99402.16;5091622;28;20013;-59
2021/05/22 04:57:56;;;;;;;5.00;2.03;;;;;;;13.23;77.95;99410.81;5096123;28;20020;-58
2021/05/22 05:00:23;;;;;;;4.07;2.50;;;;;;;13.30;78.14;99406.97;5095467;28;20019;-58
2021/05/22 05:02:50;;;;;;;5.22;2.30;;;;;;;13.25;76.71;99404.56;5060888;28;20024;-57
2021/05/22 05:05:16;;;;;;;5.13;2.00;;;;;;;13.34;77.38;99398.84;5077850;28;20394;-57
2021/05/22 05:07:42;;;;;;;4.65;1.85;;;;;;;13.40;77.33;99402.97;5091613;28;20455;-58
2021/05/22 05:10:12;;;;;;;3.00;1.80;;;;;;;13.40;77.16;99402.97;5116386;28;20111;-58
2021/05/22 05:12:38;;;;;;;2.28;1.67;;;;;;;13.42;77.08;99393.19;5102266;28;20463;-58
2021/05/22 05:15:05;;;;;;;4.30;1.95;;;;;;;13.48;76.99;99406.03;5077038;28;20028;-58
2021/05/22 05:17:31;;;;;;;6.38;2.10;;;;;;;13.49;77.79;99405.13;5095557;28;20020;-58
2021/05/22 05:19:57;;;;;;;4.80;2.17;;;;;;;13.38;77.30;99410.09;5095731;28;20028;-58
2021/05/22 05:22:24;;;;;;;3.42;2.00;;;;;;;13.38;77.57;99417.97;5095272;28;20146;-58
2021/05/22 05:24:50;;;;;;;4.38;1.80;;;;;;;13.48;77.33;99421.00;5095127;28;20055;-58
2021/05/22 05:27:15;;;;;;;4.38;2.35;;;;;;;13.56;76.98;99430.19;5095369;28;20024;-57
2021/05/22 05:29:41;;;;;;;4.88;1.83;;;;;;;13.66;76.53;99420.03;5076998;28;20044;-58
2021/05/22 05:32:10;;;;;;;4.05;1.92;;;;;;;13.56;77.37;99435.44;5095432;28;20047;-58
2021/05/22 05:34:37;;;;;;;3.17;1.65;;;;;;;13.57;76.86;99447.69;5050489;28;20060;-57
2021/05/22 05:37:03;;;;;;;2.83;2.13;;;;;;;13.43;77.22;99442.25;5089370;28;20024;-58
2021/05/22 05:39:29;;;;;;;4.80;2.17;;;;;;;13.38;77.62;99446.91;5076804;28;20077;-58
2021/05/22 05:41:54;;;;;;;5.00;2.10;;;;;;;13.53;77.38;99456.63;5094146;28;20024;-58
2021/05/22 05:44:20;;;;;;;4.30;2.47;;;;;;;13.59;76.85;99467.78;5077054;28;20082;-57
2021/05/22 05:46:46;;;;;;;5.93;2.75;;;;;;;13.60;77.29;99466.84;5076540;28;20455;-57
2021/05/22 05:49:11;;;;;;;4.78;2.40;;;;;;;13.64;76.74;99473.66;5094905;28;20375;-58
2021/05/22 05:51:37;;;;;;;3.85;2.78;;;;;;;13.56;77.35;99482.78;5094815;28;20062;-57
2021/05/22 05:54:04;;;;;;;4.68;2.35;;;;;;;13.69;76.18;99487.41;5095161;28;20505;-58
2021/05/22 05:56:29;;;;;;;5.57;2.35;;;;;;;13.74;75.63;99495.97;5094789;28;20081;-58
2021/05/22 05:58:55;;;;;;;4.95;2.38;;;;;;;13.71;75.96;99496.09;5095011;28;20032;-57
2021/05/22 06:01:20;;;;;;;2.85;2.10;;;;;;;13.80;75.11;99502.66;5094230;28;20028;-58
2021/05/22 06:03:48;;;;;;;4.82;2.67;;;;;;;13.71;75.50;99502.22;5076206;28;20107;-58
2021/05/22 06:06:13;;;;;;;7.30;2.33;;;;;;;13.89;75.58;99513.59;5094363;28;20024;-58
2021/05/22 06:08:39;;;;;;;3.42;1.98;;;;;;;14.15;74.95;99516.66;5094859;28;20042;-58
2021/05/22 06:11:06;;;;;;;3.20;2.00;;;;;;;14.00;75.82;99509.53;5094502;28;20039;-58
2021/05/22 06:13:34;;;;;;;6.32;2.17;;;;;;;14.12;76.02;99527.34;5094661;28;20467;-58
2021/05/22 06:16:46;;;;;;;5.05;2.25;;;;;;;14.13;74.47;99534.31;5075766;28;20100;-57
2021/05/22 06:18:47;;;;;;;3.53;1.50;;;;;;;14.11;72.88;99528.25;5079994;28;20380;-58
2021/05/22 06:21:12;;;;;;;4.30;1.88;;;;;;;14.05;72.90;99523.34;5094377;28;20023;-58
2021/05/22 06:23:38;;;;;;;4.15;2.33;;;;;;;14.11;73.46;99523.00;5094023;28;20177;-58
2021/05/22 06:26:04;;;;;;;5.60;2.40;;;;;;;14.15;73.58;99527.19;5094052;28;20036;-58
2021/05/22 06:28:31;;;;;;;4.25;2.08;;;;;;;14.08;74.53;99531.06;5093569;28;20036;-58
2021/05/22 06:30:58;;;;;;;6.20;2.60;;;;;;;14.15;75.32;99534.25;5093821;28;20089;-57
2021/05/22 06:33:24;;;;;;;5.57;2.05;;;;;;;14.24;74.55;99529.34;5093807;28;20035;-58
2021/05/22 06:35:52;;;;;;;4.57;2.30;;;;;;;14.40;74.18;99533.81;5094355;28;20016;-58
2021/05/22 06:38:19;;;;;;;6.80;2.10;;;;;;;14.29;73.78;99535.22;5094113;28;20070;-58
2021/05/22 06:40:45;;;;;;;9.00;2.90;;;;;;;14.37;73.87;99540.06;5075890;28;20429;-58
2021/05/22 06:43:12;;;;;;;4.82;2.63;;;;;;;14.43;73.54;99544.19;5094262;28;20504;-57
2021/05/22 06:45:43;;;;;;;5.45;2.08;;;;;;;14.36;73.92;99550.69;5093889;28;20039;-58
2021/05/22 06:48:12;;;;;;;5.43;2.78;;;;;;;14.50;72.92;99532.38;5076147;28;20043;-58
2021/05/22 06:50:39;;;;;;;2.67;1.75;;;;;;;14.66;72.03;99532.44;5093473;28;20028;-57
2021/05/22 06:53:05;;;;;;;5.95;2.72;;;;;;;14.57;71.85;99533.75;5093541;28;20024;-58
2021/05/22 06:55:31;;;;;;;6.47;2.50;;;;;;;14.61;71.28;99532.69;5092950;28;20024;-58
2021/05/22 06:57:57;;;;;;;5.25;2.75;;;;;;;14.52;72.18;99533.16;5093507;28;20024;-57
2021/05/22 07:00:23;;;;;;;4.03;2.50;;;;;;;14.66;72.39;99527.16;5093606;28;20081;-58
2021/05/22 07:02:49;;;;;;;3.63;2.13;;;;;;;14.66;73.26;99533.28;5093607;28;20048;-58
2021/05/22 07:05:15;;;;;;;5.53;2.13;;;;;;;14.79;70.29;99537.91;5093107;28;20028;-57
2021/05/22 07:07:44;;;;;;;5.22;1.80;;;;;;;14.91;69.49;99541.63;5093391;28;20071;-59
2021/05/22 07:10:13;;;;;;;5.22;1.73;;;;;;;15.05;69.78;99541.72;5075586;28;20028;-58
2021/05/22 07:12:40;;;;;;;2.65;1.90;;;;;;;15.35;70.23;99541.81;5093343;28;20052;-60
2021/05/22 07:15:08;;;;;;;3.92;2.05;;;;;;;15.35;68.88;99541.81;5093355;28;20165;-58
2021/05/22 07:17:33;;;;;;;3.25;2.10;;;;;;;15.39;68.81;99540.69;5093232;28;20036;-57
2021/05/22 07:19:59;;;;;;;3.53;1.90;;;;;;;15.53;68.04;99544.31;5074594;28;20030;-58
2021/05/22 07:22:25;;;;;;;3.10;1.95;;;;;;;15.57;68.70;99551.13;5108851;28;20024;-58
2021/05/22 07:24:50;;;;;;;5.15;2.05;;;;;;;15.84;67.84;99547.84;5075220;28;20399;-58
2021/05/22 07:27:18;;;;;;;3.40;1.98;;;;;;;16.13;65.02;99547.00;5093662;28;20024;-59
2021/05/22 07:29:48;;;;;;;3.72;1.90;;;;;;;16.06;65.44;99553.56;5093101;28;20023;-57
2021/05/22 07:32:14;;;;;;;2.70;1.65;;;;;;;16.09;64.57;99553.38;5093301;28;20034;-59
2021/05/22 07:34:40;;;;;;;5.15;2.03;;;;;;;15.93;64.32;99557.88;5093035;28;20028;-58
2021/05/22 07:37:07;;;;;;;4.15;1.98;;;;;;;15.96;65.56;99560.34;5074637;28;20040;-58
2021/05/22 07:39:33;;;;;;;6.40;2.20;;;;;;;16.08;65.04;99577.25;5092726;28;20028;-58
2021/05/22 07:42:00;;;;;;;3.75;2.08;;;;;;;16.27;64.25;99579.66;5074933;28;20023;-58
2021/05/22 07:44:26;;;;;;;2.78;1.67;;;;;;;16.22;66.04;99582.56;5074449;28;20044;-58
2021/05/22 07:46:52;;;;;;;5.40;1.65;;;;;;;16.34;65.13;99570.41;5092399;28;20129;-58
2021/05/22 07:49:17;;;;;;;2.85;1.95;;;;;;;16.61;63.60;99569.69;5074586;28;20414;-58
2021/05/22 07:51:45;;;;;;;4.85;2.20;;;;;;;16.81;62.34;99561.34;5078800;28;20028;-58
2021/05/22 07:54:11;;;;;;;2.53;1.35;;;;;;;16.91;60.31;99560.81;5078032;28;20031;-58
2021/05/22 07:56:36;;;;;;;3.38;1.50;;;;;;;16.70;60.07;99569.09;5066989;28;20036;-57
2021/05/22 07:59:02;;;;;;;2.47;1.40;;;;;;;16.66;60.44;99575.53;5080211;28;20533;-58
2021/05/22 08:01:28;;;;;;;6.90;1.58;;;;;;;16.82;60.28;99578.09;5073865;28;20027;-57
2021/05/22 08:03:54;;;;;;;3.10;1.40;;;;;;;16.85;60.68;99577.88;5065097;28;20536;-59
2021/05/22 08:06:20;;;;;;;2.60;1.38;;;;;;;16.97;59.86;99571.00;5065003;28;20068;-59
2021/05/22 08:08:47;;;;;;;1.77;1.30;;;;;;;16.83;59.84;99562.13;5080117;28;20430;-59
2021/05/22 08:11:13;;;;;;;2.15;1.50;;;;;;;16.93;58.85;99558.91;5074425;28;20020;-59
2021/05/22 08:13:40;;;;;;;3.88;1.60;;;;;;;17.08;59.44;99568.53;5078099;28;20054;-59
2021/05/22 08:16:06;;;;;;;3.67;1.58;;;;;;;17.06;59.47;99564.28;5080923;28;20503;-59
2021/05/22 08:18:32;;;;;;;4.28;1.48;;;;;;;17.10;59.31;99571.94;5080398;28;20036;-57
2021/05/22 08:20:57;;;;;;;5.68;2.08;;;;;;;17.33;59.19;99562.50;5075640;28;20605;-59
2021/05/22 08:23:23;;;;;;;4.32;1.73;;;;;;;17.26;58.71;99557.69;5075182;28;20063;-59
2021/05/22 08:25:49;;;;;;;5.70;1.60;;;;;;;17.38;57.79;99564.84;5064805;28;20097;-60
2021/05/22 08:28:22;;;;;;;3.92;1.40;;;;;;;17.38;57.14;99575.44;5080462;28;20056;-56
2021/05/22 08:30:48;;;;;;;5.22;1.35;;;;;;;17.52;56.79;99569.22;5075779;28;20039;-60
2021/05/22 08:33:14;;;;;;;3.53;1.50;;;;;;;17.57;55.32;99570.66;5076707;28;20107;-59
2021/05/22 08:35:41;;;;;;;2.17;1.42;;;;;;;17.88;54.82;99573.94;5078867;28;20967;-57
2021/05/22 08:38:06;;;;;;;2.67;1.70;;;;;;;17.83;55.48;99565.44;5078451;28;20035;-59
2021/05/22 08:40:32;;;;;;;3.65;1.50;;;;;;;18.02;54.53;99558.91;5078001;28;20020;-58
2021/05/22 08:42:58;;;;;;;4.88;1.45;;;;;;;18.17;52.64;99563.19;5059405;28;20527;-59
2021/05/22 08:45:23;;;;;;;5.38;1.52;;;;;;;18.35;51.97;99550.47;5081488;28;20056;-59
2021/05/22 08:47:53;;;;;;;3.28;1.40;;;;;;;18.27;53.90;99548.34;5073685;28;20020;-58
2021/05/22 08:50:20;;;;;;;4.47;1.83;;;;;;;18.28;52.90;99549.19;5073621;28;20131;-59
2021/05/22 08:52:46;;;;;;;4.05;1.80;;;;;;;18.50;52.42;99553.88;5056958;28;20028;-58
2021/05/22 08:55:13;;;;;;;2.47;1.30;;;;;;;18.54;51.60;99555.34;5072724;28;20020;-58
2021/05/22 08:57:40;;;;;;;6.47;1.70;;;;;;;18.85;52.90;99553.19;5092003;28;20027;-59
2021/05/22 09:00:11;;;;;;;4.25;1.50;;;;;;;18.71;53.44;99555.94;5092106;28;20517;-60
2021/05/22 09:02:37;;;;;;;6.03;1.80;;;;;;;18.67;53.05;99561.47;5086888;28;20514;-57
2021/05/22 09:05:06;;;;;;;3.63;1.67;;;;;;;18.54;51.95;99557.97;5073675;28;20032;-59
2021/05/22 09:07:33;;;;;;;3.33;1.75;;;;;;;18.45;52.22;99566.59;5091083;28;20477;-56
2021/05/22 09:10:09;;;;;;;4.38;2.00;;;;;;;18.44;53.17;99571.03;5091153;28;20038;-58
2021/05/22 09:12:43;;;;;;;4.40;2.17;;;;;;;18.52;53.62;99572.31;5091760;28;20032;-57
2021/05/22 09:15:12;;;;;;;2.17;1.50;;;;;;;18.74;52.03;99576.94;5073276;28;20046;-58
2021/05/22 09:17:46;;;;;;;3.88;1.70;;;;;;;18.78;53.08;99570.50;5074375;28;20479;-58
2021/05/22 09:20:18;;;;;;;5.35;1.90;;;;;;;18.92;51.03;99573.06;5094868;28;20028;-59
2021/05/22 09:22:58;;;;;;;3.90;1.60;;;;;;;18.43;52.46;99579.97;5077300;28;20031;-58
2021/05/22 09:25:24;;;;;;;6.40;1.90;;;;;;;18.92;50.46;99596.06;5094893;28;20055;-56
2021/05/22 09:27:52;;;;;;;6.45;2.10;;;;;;;18.88;50.42;99600.75;5094793;28;20025;-57
2021/05/22 09:30:18;;;;;;;6.93;2.17;;;;;;;18.77;50.88;99597.97;5095164;28;20016;-58
2021/05/22 09:32:45;;;;;;;4.93;1.92;;;;;;;18.75;52.19;99583.97;5095236;28;20575;-59
2021/05/22 09:35:12;;;;;;;4.25;1.92;;;;;;;18.80;53.48;99587.13;5077023;28;20044;-58
2021/05/22 09:37:49;;;;;;;7.47;2.05;;;;;;;18.70;52.47;99586.94;5077011;28;20027;-58
2021/05/22 09:40:36;;;;;;;3.80;1.90;;;;;;;18.38;53.51;99586.50;5094555;28;20124;-58
2021/05/22 09:43:05;;;;;;;2.67;1.90;;;;;;;18.57;53.04;99597.56;5094766;28;20020;-58
2021/05/22 09:45:37;;;;;;;2.60;1.45;;;;;;;18.65;53.28;99595.22;5076781;28;20391;-58
2021/05/22 09:48:23;;;;;;;6.28;1.80;;;;;;;18.61;53.31;99590.22;5094916;28;20157;-57
2021/05/22 09:50:53;;;;;;;5.57;2.08;;;;;;;18.65;53.51;99597.88;5074932;28;20047;-58
2021/05/22 09:53:22;;;;;;;4.57;1.77;;;;;;;18.50;53.55;99590.97;5066201;28;20652;-58
2021/05/22 09:56:17;;;;;;;4.63;1.95;;;;;;;18.49;55.19;99603.38;5072776;28;20028;-57
2021/05/22 09:58:57;;;;;;;5.20;2.10;;;;;;;18.46;54.01;99608.03;5083836;28;20032;-58
2021/05/22 10:01:30;;;;;;;4.93;2.00;;;;;;;18.92;52.20;99604.03;5070426;28;20106;-59
2021/05/22 10:04:16;;;;;;;3.67;2.10;;;;;;;19.12;52.38;99605.28;5081424;28;20066;-60
2021/05/22 10:06:42;;;;;;;4.95;2.10;;;;;;;19.30;49.80;99606.59;5082768;28;20498;-59
2021/05/22 10:09:13;;;;;;;6.88;2.20;;;;;;;19.72;49.54;99611.53;5067024;28;20036;-59
2021/05/22 10:12:09;;;;;;;5.53;2.17;;;;;;;20.04;48.14;99603.84;5077229;28;20107;-60
2021/05/22 10:14:39;;;;;;;5.78;2.20;;;;;;;19.85;48.50;99596.41;5083150;28;20409;-60
2021/05/22 10:17:07;;;;;;;6.43;2.50;;;;;;;19.65;50.41;99595.19;5083264;28;20645;-60
2021/05/22 10:19:34;;;;;;;3.22;2.00;;;;;;;19.61;49.47;99599.06;5064132;28;20086;-58
2021/05/22 10:22:01;;;;;;;4.03;2.25;;;;;;;19.48;49.11;99592.94;5078859;28;20048;-56
2021/05/22 10:24:27;;;;;;;7.25;2.45;;;;;;;19.52;49.19;99597.06;5083340;28;20044;-58
2021/05/22 10:26:55;;;;;;;6.20;2.83;;;;;;;19.70;48.63;99597.50;5083197;28;20028;-59
2021/05/22 10:29:22;;;;;;;4.85;2.33;;;;;;;19.62;49.04;99591.91;5075096;28;20046;-59
2021/05/22 10:31:48;;;;;;;4.55;2.13;;;;;;;19.55;51.32;99589.72;5078103;28;20042;-57
2021/05/22 10:34:16;;;;;;;4.70;2.28;;;;;;;19.58;51.36;99599.28;5082911;28;20115;-58
2021/05/22 10:36:46;;;;;;;4.45;2.00;;;;;;;19.45;51.95;99604.63;5086944;28;20028;-58
2021/05/22 10:39:49;;;;;;;4.35;1.92;;;;;;;19.18;53.16;99615.44;5094239;28;20036;-58
2021/05/22 10:42:18;;;;;;;;;;;;;;;19.00;52.57;99599.88;4976442;28;20034;-58
2021/05/22 10:44:44;;;;;;;3.92;2.33;;;;;;;18.94;52.46;99596.81;4992561;28;20047;-58
2021/05/22 10:47:12;;;;;;;4.82;2.00;;;;;;;18.84;51.78;99597.47;4992707;28;20120;-58
2021/05/22 10:49:58;;;;;;;5.03;2.20;;;;;;;18.90;51.62;99608.59;4992445;28;20027;-58
2021/05/22 10:52:29;;;;;;;3.55;2.20;;;;;;;18.68;51.55;99605.59;4992307;28;20042;-58
2021/05/22 10:55:13;;;;;;;4.75;2.88;;;;;;;18.60;53.18;99602.63;4992203;28;20481;-58
2021/05/22 10:57:42;;;;;;;4.85;2.10;;;;;;;18.66;53.20;99604.03;4976110;28;20041;-59
2021/05/22 11:00:20;;;;;;;11.75;2.60;;;;;;;18.67;53.36;99611.03;4992458;28;20042;-58
2021/05/22 11:02:54;;;;;;;6.93;2.30;;;;;;;18.62;52.84;99615.78;4992194;28;20034;-58
2021/05/22 11:08:11;;;;;;;6.03;2.17;;;;;;;19.29;50.56;99610.19;4992041;28;20106;-58
2021/05/22 11:10:41;;;;;;;3.28;2.10;;;;;;;19.48;49.47;99603.56;4975323;28;20076;-58
2021/05/22 11:13:11;;;;;;;5.25;2.00;;;;;;;19.66;49.86;99591.59;4975700;28;20153;-58
2021/05/22 11:15:43;;;;;;;4.45;2.75;;;;;;;19.82;49.07;99585.16;4991931;28;20030;-57
2021/05/22 11:18:10;;;;;;;4.57;2.50;;;;;;;19.81;48.69;99583.47;5028076;28;20039;-59
2021/05/22 11:20:37;;;;;;;4.82;2.95;;;;;;;19.84;49.18;99583.25;5093398;28;20515;-57
2021/05/22 11:23:04;;;;;;;3.83;1.90;;;;;;;19.84;48.45;99583.25;5076109;28;20039;-59
2021/05/22 11:25:51;;;;;;;4.75;2.67;;;;;;;19.71;48.53;99589.44;5093313;28;20048;-58
2021/05/22 11:28:21;;;;;;;5.72;3.08;;;;;;;19.57;49.18;99586.94;5093228;28;20032;-58
2021/05/22 11:30:56;;;;;;;5.32;2.15;;;;;;;19.69;50.78;99582.56;5093196;28;20093;-59
2021/05/22 11:33:29;;;;;;;4.30;2.50;;;;;;;19.69;49.88;99580.72;5075247;28;20079;-58
2021/05/22 11:35:57;;;;;;;5.97;2.80;;;;;;;19.41;49.29;99577.47;5093518;28;20020;-59
2021/05/22 11:38:25;;;;;;;6.07;2.88;;;;;;;19.51;48.59;99582.09;5075024;28;20024;-59
2021/05/22 11:40:53;;;;;;;6.70;2.60;;;;;;;19.58;47.72;99583.34;5092463;28;20029;-60